Test XHTML 1.0 Strict Page for WU-History Testing
Station Historical Data
 
Daily Summary for December 11, 2016 Units:  Both    English   Metric
« Previous Day
Next Day »
Daily Weekly Monthly Yearly Custom
  Current: High: Low: Average:
Temperature: 41.0 °F /  5 °C 44.4 °F /  6.9 °C 40.6 °F /  4.8 °C 43.2 °F /  6.2 °C
Dew Point: 41.0 °F /  5 °C 44.4 °F /  6.9 °C 40.6 °F /  4.8 °C 43.2 °F /  6.2 °C
Humidity: 100 % 100 % 100 % 100 %
Wind Speed: 0.0 mph /  0 km/h 5.2 mph /  8.4 km/h - 0.8 mph /  1.3 km/h
Wind Gust: 0.0 mph /  0 km/h 5.2 mph /  8.4 km/h - -
Wind:Calm - - NNE
Pressure: 30.17 in /  1021.6 hPa 30.17 in /  1021.6 hPa 30.13 in /  1020.2 hPa -
Precipitation: 0.00 in /  0 mm      
Historical Graphs
 
 
Weather-Above Climate History
Untitled
Tabular Data for December 11, 2016
Time Temperature Dew Point Pressure Wind Wind Speed Wind Gust Humidity Rainfall Rate (Hourly) solar Conditions
00:00 43.5 °F /  6.4 °C 43.5 °F /  6.4 °C 30.13 in /  1020.2 hPa Calm     100 % 0.00 in /  0 mm 10.5 W/m2
00:05 43.5 °F /  6.4 °C 43.5 °F /  6.4 °C 30.13 in /  1020.2 hPa Calm     100 % 0.00 in /  0 mm 9.0 W/m2 RA
00:10 43.7 °F /  6.5 °C 43.7 °F /  6.5 °C 30.14 in /  1020.5 hPa North 5.2 mph /  8.4 km/h 5.2 mph /  8.4 km/h 100 % 0.00 in /  0 mm 10.5 W/m2 RA
00:15 43.9 °F /  6.6 °C 43.9 °F /  6.6 °C 30.13 in /  1020.2 hPa Calm     100 % 0.00 in /  0 mm 0.0 W/m2
00:20 44.1 °F /  6.7 °C 44.1 °F /  6.7 °C 30.14 in /  1020.5 hPa Calm     100 % 0.00 in /  0 mm 10.5 W/m2
00:25 44.1 °F /  6.7 °C 44.1 °F /  6.7 °C 30.14 in /  1020.5 hPa North 2.9 mph /  4.7 km/h 2.9 mph /  4.7 km/h 100 % 0.00 in /  0 mm 10.5 W/m2
00:30 44.2 °F /  6.8 °C 44.2 °F /  6.8 °C 30.14 in /  1020.5 hPa Calm     100 % 0.00 in /  0 mm 0.0 W/m2
00:35 44.2 °F /  6.8 °C 44.2 °F /  6.8 °C 30.14 in /  1020.5 hPa Calm     100 % 0.00 in /  0 mm 0.0 W/m2
00:40 44.2 °F /  6.8 °C 44.2 °F /  6.8 °C 30.14 in /  1020.5 hPa Calm     100 % 0.00 in /  0 mm 13.5 W/m2
00:45 44.2 °F /  6.8 °C 44.2 °F /  6.8 °C 30.14 in /  1020.5 hPa Calm     100 % 0.00 in /  0 mm 9.0 W/m2
00:50 44.4 °F /  6.9 °C 44.4 °F /  6.9 °C 30.14 in /  1020.5 hPa Calm     100 % 0.00 in /  0 mm 0.0 W/m2
00:55 44.2 °F /  6.8 °C 44.2 °F /  6.8 °C 30.14 in /  1020.5 hPa North 2.3 mph /  3.7 km/h 2.3 mph /  3.7 km/h 100 % 0.00 in /  0 mm 10.5 W/m2
01:00 44.1 °F /  6.7 °C 44.1 °F /  6.7 °C 30.14 in /  1020.5 hPa Calm     100 % 0.00 in /  0 mm 9.0 W/m2
01:05 43.9 °F /  6.6 °C 43.9 °F /  6.6 °C 30.14 in /  1020.5 hPa Calm     100 % 0.00 in /  0 mm 0.0 W/m2
01:10 43.7 °F /  6.5 °C 43.7 °F /  6.5 °C 30.14 in /  1020.5 hPa North 1.2 mph /  1.9 km/h 1.2 mph /  1.9 km/h 100 % 0.00 in /  0 mm 10.5 W/m2
01:16 44.1 °F /  6.7 °C 44.1 °F /  6.7 °C 30.14 in /  1020.5 hPa Calm     100 % 0.00 in /  0 mm 9.0 W/m2
01:21 44.1 °F /  6.7 °C 44.1 °F /  6.7 °C 30.15 in /  1020.9 hPa Calm     100 % 0.00 in /  0 mm 0.0 W/m2
01:27 44.2 °F /  6.8 °C 44.2 °F /  6.8 °C 30.15 in /  1020.9 hPa North 1.2 mph /  1.9 km/h 1.2 mph /  1.9 km/h 100 % 0.00 in /  0 mm 9.0 W/m2
01:32 44.4 °F /  6.9 °C 44.4 °F /  6.9 °C 30.15 in /  1020.9 hPa North 4.6 mph /  7.4 km/h 4.6 mph /  7.4 km/h 100 % 0.00 in /  0 mm 0.0 W/m2
01:37 44.2 °F /  6.8 °C 44.2 °F /  6.8 °C 30.15 in /  1020.9 hPa Calm     100 % 0.00 in /  0 mm 0.0 W/m2
01:43 44.2 °F /  6.8 °C 44.2 °F /  6.8 °C 30.16 in /  1021.2 hPa North 4.0 mph /  6.4 km/h 4.0 mph /  6.4 km/h 100 % 0.00 in /  0 mm 0.0 W/m2
01:48 44.4 °F /  6.9 °C 44.4 °F /  6.9 °C 30.16 in /  1021.2 hPa North 3.5 mph /  5.6 km/h 3.5 mph /  5.6 km/h 100 % 0.00 in /  0 mm 0.0 W/m2
01:53 44.4 °F /  6.9 °C 44.4 °F /  6.9 °C 30.17 in /  1021.6 hPa North 2.3 mph /  3.7 km/h 2.3 mph /  3.7 km/h 100 % 0.00 in /  0 mm 0.0 W/m2
01:58 44.2 °F /  6.8 °C 44.2 °F /  6.8 °C 30.17 in /  1021.6 hPa NNW 4.6 mph /  7.4 km/h   100 % 0.00 in /  0 mm 0.0 W/m2
02:03 44.2 °F /  6.8 °C 44.2 °F /  6.8 °C 30.16 in /  1021.2 hPa North 2.2 mph /  3.5 km/h 2.2 mph /  3.5 km/h 100 % 0.00 in /  0 mm 15.0 W/m2
02:08 43.9 °F /  6.6 °C 43.9 °F /  6.6 °C 30.16 in /  1021.2 hPa North 1.2 mph /  1.9 km/h   100 % 0.00 in /  0 mm 0.0 W/m2
02:13 43.7 °F /  6.5 °C 43.7 °F /  6.5 °C 30.17 in /  1021.6 hPa Calm     100 % 0.00 in /  0 mm 0.0 W/m2
02:18 43.2 °F /  6.2 °C 43.2 °F /  6.2 °C 30.17 in /  1021.6 hPa Calm     100 % 0.00 in /  0 mm 7.5 W/m2
02:23 43.2 °F /  6.2 °C 43.2 °F /  6.2 °C 30.17 in /  1021.6 hPa Calm     100 % 0.00 in /  0 mm 0.0 W/m2
02:28 43.2 °F /  6.2 °C 43.2 °F /  6.2 °C 30.17 in /  1021.6 hPa Calm     100 % 0.00 in /  0 mm 0.0 W/m2
02:33 43.2 °F /  6.2 °C 43.2 °F /  6.2 °C 30.17 in /  1021.6 hPa Calm     100 % 0.00 in /  0 mm 18.0 W/m2
02:38 43.2 °F /  6.2 °C 43.2 °F /  6.2 °C 30.17 in /  1021.6 hPa Calm     100 % 0.00 in /  0 mm 13.5 W/m2
02:43 43.3 °F /  6.3 °C 43.3 °F /  6.3 °C 30.17 in /  1021.6 hPa Calm     100 % 0.00 in /  0 mm 0.0 W/m2
02:48 43.2 °F /  6.2 °C 43.2 °F /  6.2 °C 30.17 in /  1021.6 hPa Calm     100 % 0.00 in /  0 mm 9.0 W/m2
02:53 43.0 °F /  6.1 °C 43.0 °F /  6.1 °C 30.17 in /  1021.6 hPa Calm     100 % 0.00 in /  0 mm 9.0 W/m2
02:58 42.6 °F /  5.9 °C 42.6 °F /  5.9 °C 30.17 in /  1021.6 hPa Calm     100 % 0.00 in /  0 mm 0.0 W/m2
03:03 42.6 °F /  5.9 °C 42.6 °F /  5.9 °C 30.17 in /  1021.6 hPa Calm     100 % 0.00 in /  0 mm 10.5 W/m2
03:08 41.9 °F /  5.5 °C 41.9 °F /  5.5 °C 30.16 in /  1021.2 hPa Calm     100 % 0.00 in /  0 mm 15.0 W/m2
03:13 41.7 °F /  5.4 °C 41.7 °F /  5.4 °C 30.17 in /  1021.6 hPa Calm     100 % 0.00 in /  0 mm 9.0 W/m2
03:18 41.4 °F /  5.2 °C 41.4 °F /  5.2 °C 30.17 in /  1021.6 hPa Calm     100 % 0.00 in /  0 mm 0.0 W/m2
03:23 41.2 °F /  5.1 °C 41.2 °F /  5.1 °C 30.17 in /  1021.6 hPa Calm     100 % 0.00 in /  0 mm 9.0 W/m2
03:28 41.5 °F /  5.3 °C 41.5 °F /  5.3 °C 30.17 in /  1021.6 hPa North 1.2 mph /  1.9 km/h   100 % 0.00 in /  0 mm 10.5 W/m2
03:33 41.5 °F /  5.3 °C 41.5 °F /  5.3 °C 30.17 in /  1021.6 hPa Calm     100 % 0.00 in /  0 mm 0.0 W/m2
03:38 41.0 °F /  5 °C 41.0 °F /  5 °C 30.17 in /  1021.6 hPa North 1.7 mph /  2.7 km/h 1.7 mph /  2.7 km/h 100 % 0.00 in /  0 mm 16.5 W/m2
03:43 40.8 °F /  4.9 °C 40.8 °F /  4.9 °C 30.17 in /  1021.6 hPa Calm     100 % 0.00 in /  0 mm 21.0 W/m2
03:48 40.6 °F /  4.8 °C 40.6 °F /  4.8 °C 30.17 in /  1021.6 hPa Calm     100 % 0.00 in /  0 mm 0.0 W/m2
03:53 40.6 °F /  4.8 °C 40.6 °F /  4.8 °C 30.17 in /  1021.6 hPa Calm     100 % 0.00 in /  0 mm 9.0 W/m2
03:58 40.8 °F /  4.9 °C 40.8 °F /  4.9 °C 30.17 in /  1021.6 hPa Calm     100 % 0.00 in /  0 mm 18.0 W/m2
04:03 41.0 °F /  5 °C 41.0 °F /  5 °C 30.17 in /  1021.6 hPa Calm     100 % 0.00 in /  0 mm 0.0 W/m2
Wether-Above
Compliments of Weather Underground - 1 mb
Welcome to Weather-Above
Cheddleton weather station supplies various organisations with data from our weather station one of them is the weather Underground this information displayed here is coming from the weather Underground server 

If any information is used please acknowledge the source to www weather-above.com or weather Underground